Terminal Aerodrome Forecast
Issued by NWS Shreveport, LA

Home | Current Version | Previous Version | Text Only | Print | Product List | Glossary On
Versions: 1 2 3 4 5 6 7 8 9 10 11 12 13 14 15 16 17 18 19 20 21
245
FTUS44 KSHV 181725
TAFSHV
TAF
KSHV 181725Z 1818/1918 06006KT P6SM OVC010
      TEMPO 1818/1820 4SM -SHRA BR BKN005
     FM182000 07005KT 2SM +RA BR OVC004
     FM190900 23005KT 4SM -RA BR OVC007
     FM191700 26004KT 5SM BR OVC015=

USA.gov is the U.S. government's official web portal to all federal, state and local government web resources and services.